sensor_id;sensor_type;location;lat;lon;timestamp;P1;durP1;ratioP1;P2;durP2;ratioP2
20122;SDS011;10222;50.848;4.336;2023-02-10T00:03:50;26.30;;;13.20;;
20122;SDS011;10222;50.848;4.336;2023-02-10T00:08:47;19.53;;;11.20;;
20122;SDS011;10222;50.848;4.336;2023-02-10T00:13:43;29.03;;;12.80;;
20122;SDS011;10222;50.848;4.336;2023-02-10T00:16:14;23.13;;;12.27;;
20122;SDS011;10222;50.848;4.336;2023-02-10T00:18:43;27.50;;;12.93;;
20122;SDS011;10222;50.848;4.336;2023-02-10T00:21:13;19.90;;;11.40;;
20122;SDS011;10222;50.848;4.336;2023-02-10T00:23:42;25.70;;;12.67;;
20122;SDS011;10222;50.848;4.336;2023-02-10T00:26:12;27.03;;;12.50;;
20122;SDS011;10222;50.848;4.336;2023-02-10T00:28:45;24.30;;;12.10;;
20122;SDS011;10222;50.848;4.336;2023-02-10T00:33:46;24.13;;;12.60;;
20122;SDS011;10222;50.848;4.336;2023-02-10T00:38:44;30.60;;;14.50;;
20122;SDS011;10222;50.848;4.336;2023-02-10T00:41:17;26.77;;;12.40;;
20122;SDS011;10222;50.848;4.336;2023-02-10T00:43:49;33.80;;;13.37;;
20122;SDS011;10222;50.848;4.336;2023-02-10T00:46:20;23.43;;;11.80;;
20122;SDS011;10222;50.848;4.336;2023-02-10T00:48:46;25.10;;;11.73;;
20122;SDS011;10222;50.848;4.336;2023-02-10T00:51:13;26.33;;;12.67;;
20122;SDS011;10222;50.848;4.336;2023-02-10T00:56:11;29.90;;;13.97;;
20122;SDS011;10222;50.848;4.336;2023-02-10T00:58:41;27.70;;;12.57;;
20122;SDS011;10222;50.848;4.336;2023-02-10T01:01:08;27.33;;;12.53;;
20122;SDS011;10222;50.848;4.336;2023-02-10T01:03:36;30.10;;;12.97;;
20122;SDS011;10222;50.848;4.336;2023-02-10T01:06:02;23.23;;;12.10;;
20122;SDS011;10222;50.848;4.336;2023-02-10T01:08:28;22.93;;;11.83;;
20122;SDS011;10222;50.848;4.336;2023-02-10T01:11:02;25.53;;;13.03;;
20122;SDS011;10222;50.848;4.336;2023-02-10T01:16:06;24.17;;;12.37;;
20122;SDS011;10222;50.848;4.336;2023-02-10T01:18:45;26.27;;;12.37;;
20122;SDS011;10222;50.848;4.336;2023-02-10T01:21:15;27.20;;;12.67;;
20122;SDS011;10222;50.848;4.336;2023-02-10T01:23:44;25.83;;;12.83;;
20122;SDS011;10222;50.848;4.336;2023-02-10T01:28:43;26.23;;;13.70;;
20122;SDS011;10222;50.848;4.336;2023-02-10T01:31:14;26.47;;;13.33;;
20122;SDS011;10222;50.848;4.336;2023-02-10T01:33:44;23.83;;;11.37;;
20122;SDS011;10222;50.848;4.336;2023-02-10T01:36:14;26.37;;;13.67;;
20122;SDS011;10222;50.848;4.336;2023-02-10T01:38:41;28.93;;;13.37;;
20122;SDS011;10222;50.848;4.336;2023-02-10T01:41:12;26.63;;;12.93;;
20122;SDS011;10222;50.848;4.336;2023-02-10T01:46:27;26.77;;;13.90;;
20122;SDS011;10222;50.848;4.336;2023-02-10T01:48:55;24.47;;;12.13;;
20122;SDS011;10222;50.848;4.336;2023-02-10T01:54:25;28.10;;;13.97;;
20122;SDS011;10222;50.848;4.336;2023-02-10T01:56:53;26.30;;;13.57;;
20122;SDS011;10222;50.848;4.336;2023-02-10T01:59:22;23.70;;;12.70;;
20122;SDS011;10222;50.848;4.336;2023-02-10T02:02:04;30.23;;;13.50;;
20122;SDS011;10222;50.848;4.336;2023-02-10T02:04:37;23.23;;;12.20;;
20122;SDS011;10222;50.848;4.336;2023-02-10T02:09:33;28.97;;;12.33;;
20122;SDS011;10222;50.848;4.336;2023-02-10T02:12:12;29.80;;;12.77;;
20122;SDS011;10222;50.848;4.336;2023-02-10T02:14:42;31.37;;;13.07;;
20122;SDS011;10222;50.848;4.336;2023-02-10T02:28:25;29.13;;;13.23;;
20122;SDS011;10222;50.848;4.336;2023-02-10T02:36:30;26.60;;;12.63;;
20122;SDS011;10222;50.848;4.336;2023-02-10T02:39:02;26.80;;;12.20;;
20122;SDS011;10222;50.848;4.336;2023-02-10T02:43:58;26.10;;;12.13;;
20122;SDS011;10222;50.848;4.336;2023-02-10T02:46:38;29.73;;;13.73;;
20122;SDS011;10222;50.848;4.336;2023-02-10T02:49:21;29.93;;;12.47;;
20122;SDS011;10222;50.848;4.336;2023-02-10T02:52:02;34.20;;;14.07;;
20122;SDS011;10222;50.848;4.336;2023-02-10T02:54:34;26.80;;;13.57;;
20122;SDS011;10222;50.848;4.336;2023-02-10T02:57:07;29.23;;;13.70;;
20122;SDS011;10222;50.848;4.336;2023-02-10T02:59:39;23.57;;;11.83;;
20122;SDS011;10222;50.848;4.336;2023-02-10T03:02:11;29.37;;;13.40;;
20122;SDS011;10222;50.848;4.336;2023-02-10T03:07:09;29.93;;;13.70;;
20122;SDS011;10222;50.848;4.336;2023-02-10T03:12:07;30.43;;;12.37;;
20122;SDS011;10222;50.848;4.336;2023-02-10T03:14:33;29.33;;;13.27;;
20122;SDS011;10222;50.848;4.336;2023-02-10T03:17:02;34.53;;;14.13;;
20122;SDS011;10222;50.848;4.336;2023-02-10T03:19:29;32.53;;;13.30;;
20122;SDS011;10222;50.848;4.336;2023-02-10T03:21:58;27.00;;;13.17;;
20122;SDS011;10222;50.848;4.336;2023-02-10T03:26:54;30.10;;;13.33;;
20122;SDS011;10222;50.848;4.336;2023-02-10T03:29:23;33.27;;;12.00;;
20122;SDS011;10222;50.848;4.336;2023-02-10T03:31:53;29.53;;;12.97;;
20122;SDS011;10222;50.848;4.336;2023-02-10T03:36:48;31.80;;;13.33;;
20122;SDS011;10222;50.848;4.336;2023-02-10T03:39:15;40.43;;;14.93;;
20122;SDS011;10222;50.848;4.336;2023-02-10T03:41:41;30.77;;;13.23;;
20122;SDS011;10222;50.848;4.336;2023-02-10T03:44:10;31.93;;;13.43;;
20122;SDS011;10222;50.848;4.336;2023-02-10T03:46:38;31.43;;;12.63;;
20122;SDS011;10222;50.848;4.336;2023-02-10T03:49:07;36.53;;;14.20;;
20122;SDS011;10222;50.848;4.336;2023-02-10T03:51:33;39.53;;;14.67;;
20122;SDS011;10222;50.848;4.336;2023-02-10T03:54:09;33.33;;;13.93;;
20122;SDS011;10222;50.848;4.336;2023-02-10T03:59:06;37.17;;;14.00;;
20122;SDS011;10222;50.848;4.336;2023-02-10T04:01:35;39.33;;;14.53;;
20122;SDS011;10222;50.848;4.336;2023-02-10T04:04:01;35.37;;;13.80;;
20122;SDS011;10222;50.848;4.336;2023-02-10T04:06:30;36.63;;;14.80;;
20122;SDS011;10222;50.848;4.336;2023-02-10T04:08:58;37.83;;;15.03;;
20122;SDS011;10222;50.848;4.336;2023-02-10T04:11:31;34.70;;;14.07;;
20122;SDS011;10222;50.848;4.336;2023-02-10T04:14:01;39.97;;;15.13;;
20122;SDS011;10222;50.848;4.336;2023-02-10T04:18:57;38.43;;;15.00;;
20122;SDS011;10222;50.848;4.336;2023-02-10T04:21:26;39.70;;;16.00;;
20122;SDS011;10222;50.848;4.336;2023-02-10T04:23:53;42.43;;;14.33;;
20122;SDS011;10222;50.848;4.336;2023-02-10T04:26:32;32.97;;;13.27;;
20122;SDS011;10222;50.848;4.336;2023-02-10T04:28:59;27.67;;;12.83;;
20122;SDS011;10222;50.848;4.336;2023-02-10T04:31:27;27.53;;;12.37;;
20122;SDS011;10222;50.848;4.336;2023-02-10T04:33:55;28.40;;;12.03;;
20122;SDS011;10222;50.848;4.336;2023-02-10T04:41:20;30.00;;;11.03;;
20122;SDS011;10222;50.848;4.336;2023-02-10T04:43:47;30.57;;;11.20;;
20122;SDS011;10222;50.848;4.336;2023-02-10T04:48:42;35.50;;;13.73;;
20122;SDS011;10222;50.848;4.336;2023-02-10T04:53:40;32.50;;;14.37;;
20122;SDS011;10222;50.848;4.336;2023-02-10T04:56:14;41.03;;;14.80;;
20122;SDS011;10222;50.848;4.336;2023-02-10T05:01:12;36.37;;;15.03;;
20122;SDS011;10222;50.848;4.336;2023-02-10T05:03:39;31.40;;;12.63;;
20122;SDS011;10222;50.848;4.336;2023-02-10T05:06:07;40.47;;;15.43;;
20122;SDS011;10222;50.848;4.336;2023-02-10T05:08:34;34.27;;;13.73;;
20122;SDS011;10222;50.848;4.336;2023-02-10T05:11:05;37.43;;;15.17;;
20122;SDS011;10222;50.848;4.336;2023-02-10T05:13:31;39.13;;;14.77;;
20122;SDS011;10222;50.848;4.336;2023-02-10T05:16:01;36.43;;;14.40;;
20122;SDS011;10222;50.848;4.336;2023-02-10T05:20:59;33.57;;;14.17;;
20122;SDS011;10222;50.848;4.336;2023-02-10T05:23:26;40.37;;;15.27;;
20122;SDS011;10222;50.848;4.336;2023-02-10T05:25:53;38.27;;;15.20;;
20122;SDS011;10222;50.848;4.336;2023-02-10T05:28:19;36.63;;;16.07;;
20122;SDS011;10222;50.848;4.336;2023-02-10T05:30:46;30.20;;;14.47;;
20122;SDS011;10222;50.848;4.336;2023-02-10T05:33:14;33.47;;;15.27;;
20122;SDS011;10222;50.848;4.336;2023-02-10T05:38:10;37.20;;;16.83;;
20122;SDS011;10222;50.848;4.336;2023-02-10T05:40:36;33.13;;;13.77;;
20122;SDS011;10222;50.848;4.336;2023-02-10T05:43:02;37.90;;;14.63;;
20122;SDS011;10222;50.848;4.336;2023-02-10T05:45:30;42.17;;;15.53;;
20122;SDS011;10222;50.848;4.336;2023-02-10T05:47:58;35.50;;;15.23;;
20122;SDS011;10222;50.848;4.336;2023-02-10T05:50:34;40.57;;;17.37;;
20122;SDS011;10222;50.848;4.336;2023-02-10T05:53:03;37.53;;;15.40;;
20122;SDS011;10222;50.848;4.336;2023-02-10T05:55:31;35.30;;;14.53;;
20122;SDS011;10222;50.848;4.336;2023-02-10T05:58:00;34.33;;;14.97;;
20122;SDS011;10222;50.848;4.336;2023-02-10T06:02:55;34.53;;;16.50;;
20122;SDS011;10222;50.848;4.336;2023-02-10T06:07:53;39.27;;;15.27;;
20122;SDS011;10222;50.848;4.336;2023-02-10T06:10:21;35.77;;;16.83;;
20122;SDS011;10222;50.848;4.336;2023-02-10T06:12:49;36.87;;;16.90;;
20122;SDS011;10222;50.848;4.336;2023-02-10T06:15:20;34.83;;;15.57;;
20122;SDS011;10222;50.848;4.336;2023-02-10T06:20:20;30.13;;;15.03;;
20122;SDS011;10222;50.848;4.336;2023-02-10T06:25:19;37.60;;;15.97;;
20122;SDS011;10222;50.848;4.336;2023-02-10T06:30:14;30.77;;;15.50;;
20122;SDS011;10222;50.848;4.336;2023-02-10T06:35:11;31.87;;;13.67;;
20122;SDS011;10222;50.848;4.336;2023-02-10T06:37:43;33.90;;;15.67;;
20122;SDS011;10222;50.848;4.336;2023-02-10T06:40:16;36.80;;;16.23;;
20122;SDS011;10222;50.848;4.336;2023-02-10T06:42:45;42.07;;;17.37;;
20122;SDS011;10222;50.848;4.336;2023-02-10T06:45:13;35.17;;;16.97;;
20122;SDS011;10222;50.848;4.336;2023-02-10T06:47:41;39.07;;;15.33;;
20122;SDS011;10222;50.848;4.336;2023-02-10T06:50:13;34.40;;;17.03;;
20122;SDS011;10222;50.848;4.336;2023-02-10T06:52:39;36.67;;;16.13;;
20122;SDS011;10222;50.848;4.336;2023-02-10T06:55:06;33.73;;;13.97;;
20122;SDS011;10222;50.848;4.336;2023-02-10T06:57:35;35.60;;;15.97;;
20122;SDS011;10222;50.848;4.336;2023-02-10T07:02:33;31.10;;;15.87;;
20122;SDS011;10222;50.848;4.336;2023-02-10T07:05:00;37.33;;;15.17;;
20122;SDS011;10222;50.848;4.336;2023-02-10T07:07:32;30.73;;;15.03;;
20122;SDS011;10222;50.848;4.336;2023-02-10T07:10:04;34.53;;;16.17;;
20122;SDS011;10222;50.848;4.336;2023-02-10T07:12:37;35.57;;;17.47;;
20122;SDS011;10222;50.848;4.336;2023-02-10T07:15:04;33.13;;;15.17;;
20122;SDS011;10222;50.848;4.336;2023-02-10T07:17:31;32.10;;;16.10;;
20122;SDS011;10222;50.848;4.336;2023-02-10T07:22:27;33.83;;;15.50;;
20122;SDS011;10222;50.848;4.336;2023-02-10T07:24:56;35.53;;;15.07;;
20122;SDS011;10222;50.848;4.336;2023-02-10T07:29:55;33.60;;;14.87;;
20122;SDS011;10222;50.848;4.336;2023-02-10T07:34:53;47.00;;;18.40;;
20122;SDS011;10222;50.848;4.336;2023-02-10T07:37:19;38.93;;;16.50;;
20122;SDS011;10222;50.848;4.336;2023-02-10T07:39:48;35.97;;;17.90;;
20122;SDS011;10222;50.848;4.336;2023-02-10T07:42:16;39.70;;;16.83;;
20122;SDS011;10222;50.848;4.336;2023-02-10T07:44:45;30.97;;;15.70;;
20122;SDS011;10222;50.848;4.336;2023-02-10T07:47:13;38.13;;;16.53;;
20122;SDS011;10222;50.848;4.336;2023-02-10T07:49:42;36.77;;;16.83;;
20122;SDS011;10222;50.848;4.336;2023-02-10T07:54:37;31.47;;;15.40;;
20122;SDS011;10222;50.848;4.336;2023-02-10T07:59:37;44.30;;;17.70;;
20122;SDS011;10222;50.848;4.336;2023-02-10T08:04:32;38.97;;;16.57;;
20122;SDS011;10222;50.848;4.336;2023-02-10T08:06:59;42.97;;;18.27;;
20122;SDS011;10222;50.848;4.336;2023-02-10T08:09:26;39.67;;;16.90;;
20122;SDS011;10222;50.848;4.336;2023-02-10T08:11:52;38.90;;;17.37;;
20122;SDS011;10222;50.848;4.336;2023-02-10T08:16:50;40.10;;;17.63;;
20122;SDS011;10222;50.848;4.336;2023-02-10T08:19:19;39.90;;;18.13;;
20122;SDS011;10222;50.848;4.336;2023-02-10T08:21:48;41.17;;;18.17;;
20122;SDS011;10222;50.848;4.336;2023-02-10T08:24:17;42.30;;;18.80;;
20122;SDS011;10222;50.848;4.336;2023-02-10T08:26:46;41.90;;;18.63;;
20122;SDS011;10222;50.848;4.336;2023-02-10T08:29:13;44.37;;;20.57;;
20122;SDS011;10222;50.848;4.336;2023-02-10T08:34:15;45.50;;;19.60;;
20122;SDS011;10222;50.848;4.336;2023-02-10T08:36:43;44.63;;;20.57;;
20122;SDS011;10222;50.848;4.336;2023-02-10T08:39:09;45.97;;;19.97;;
20122;SDS011;10222;50.848;4.336;2023-02-10T08:41:37;41.13;;;19.33;;
20122;SDS011;10222;50.848;4.336;2023-02-10T08:44:04;40.80;;;19.43;;
20122;SDS011;10222;50.848;4.336;2023-02-10T08:46:31;47.13;;;20.73;;
20122;SDS011;10222;50.848;4.336;2023-02-10T08:49:00;45.90;;;18.57;;
20122;SDS011;10222;50.848;4.336;2023-02-10T08:51:26;44.50;;;19.10;;
20122;SDS011;10222;50.848;4.336;2023-02-10T08:53:53;45.53;;;20.40;;
20122;SDS011;10222;50.848;4.336;2023-02-10T08:56:24;47.23;;;18.77;;
20122;SDS011;10222;50.848;4.336;2023-02-10T08:58:51;45.40;;;18.07;;
20122;SDS011;10222;50.848;4.336;2023-02-10T09:01:19;50.90;;;20.20;;
20122;SDS011;10222;50.848;4.336;2023-02-10T09:06:24;40.17;;;18.50;;
20122;SDS011;10222;50.848;4.336;2023-02-10T09:08:50;58.57;;;20.00;;
20122;SDS011;10222;50.848;4.336;2023-02-10T09:11:17;49.13;;;19.57;;
20122;SDS011;10222;50.848;4.336;2023-02-10T09:13:44;39.27;;;18.83;;
20122;SDS011;10222;50.848;4.336;2023-02-10T09:16:13;47.07;;;19.80;;
20122;SDS011;10222;50.848;4.336;2023-02-10T09:18:41;45.90;;;19.37;;
20122;SDS011;10222;50.848;4.336;2023-02-10T09:21:10;47.80;;;21.20;;
20122;SDS011;10222;50.848;4.336;2023-02-10T09:23:37;43.60;;;19.90;;
20122;SDS011;10222;50.848;4.336;2023-02-10T09:26:03;46.20;;;19.87;;
20122;SDS011;10222;50.848;4.336;2023-02-10T09:28:29;48.67;;;17.83;;
20122;SDS011;10222;50.848;4.336;2023-02-10T09:30:56;47.20;;;18.50;;
20122;SDS011;10222;50.848;4.336;2023-02-10T09:33:22;52.20;;;19.30;;
20122;SDS011;10222;50.848;4.336;2023-02-10T09:35:54;51.87;;;20.43;;
20122;SDS011;10222;50.848;4.336;2023-02-10T09:38:21;50.90;;;20.73;;
20122;SDS011;10222;50.848;4.336;2023-02-10T09:43:26;53.63;;;20.10;;
20122;SDS011;10222;50.848;4.336;2023-02-10T09:46:07;54.20;;;21.43;;
20122;SDS011;10222;50.848;4.336;2023-02-10T09:49:23;55.77;;;21.93;;
20122;SDS011;10222;50.848;4.336;2023-02-10T09:51:31;55.77;;;20.07;;
20122;SDS011;10222;50.848;4.336;2023-02-10T09:53:59;47.73;;;17.67;;
20122;SDS011;10222;50.848;4.336;2023-02-10T09:56:26;47.57;;;17.53;;
20122;SDS011;10222;50.848;4.336;2023-02-10T09:58:58;50.10;;;19.00;;
20122;SDS011;10222;50.848;4.336;2023-02-10T10:01:29;48.07;;;19.40;;
20122;SDS011;10222;50.848;4.336;2023-02-10T10:06:27;54.83;;;20.27;;
20122;SDS011;10222;50.848;4.336;2023-02-10T10:11:25;44.97;;;19.47;;
20122;SDS011;10222;50.848;4.336;2023-02-10T10:13:54;50.70;;;18.50;;
20122;SDS011;10222;50.848;4.336;2023-02-10T10:16:25;68.97;;;19.30;;
20122;SDS011;10222;50.848;4.336;2023-02-10T10:22:01;56.03;;;21.63;;
20122;SDS011;10222;50.848;4.336;2023-02-10T10:24:50;46.70;;;19.93;;
20122;SDS011;10222;50.848;4.336;2023-02-10T10:27:29;53.60;;;20.60;;
20122;SDS011;10222;50.848;4.336;2023-02-10T10:30:02;47.50;;;19.20;;
20122;SDS011;10222;50.848;4.336;2023-02-10T10:35:16;48.37;;;18.80;;
20122;SDS011;10222;50.848;4.336;2023-02-10T10:37:43;52.27;;;18.57;;
20122;SDS011;10222;50.848;4.336;2023-02-10T10:40:22;40.17;;;16.43;;
20122;SDS011;10222;50.848;4.336;2023-02-10T10:42:55;46.33;;;19.77;;
20122;SDS011;10222;50.848;4.336;2023-02-10T10:45:39;46.57;;;18.33;;
20122;SDS011;10222;50.848;4.336;2023-02-10T10:48:16;40.13;;;16.33;;
20122;SDS011;10222;50.848;4.336;2023-02-10T10:50:46;40.47;;;16.73;;
20122;SDS011;10222;50.848;4.336;2023-02-10T10:53:20;38.67;;;17.67;;
20122;SDS011;10222;50.848;4.336;2023-02-10T10:55:53;38.37;;;14.80;;
20122;SDS011;10222;50.848;4.336;2023-02-10T11:00:59;29.23;;;13.40;;
20122;SDS011;10222;50.848;4.336;2023-02-10T11:03:27;35.43;;;14.07;;
20122;SDS011;10222;50.848;4.336;2023-02-10T11:08:42;39.67;;;13.30;;
20122;SDS011;10222;50.848;4.336;2023-02-10T11:11:14;35.57;;;15.53;;
20122;SDS011;10222;50.848;4.336;2023-02-10T11:13:49;37.70;;;15.00;;
20122;SDS011;10222;50.848;4.336;2023-02-10T11:16:22;34.13;;;14.07;;
20122;SDS011;10222;50.848;4.336;2023-02-10T11:18:55;24.83;;;12.70;;
20122;SDS011;10222;50.848;4.336;2023-02-10T11:21:39;29.67;;;13.37;;
20122;SDS011;10222;50.848;4.336;2023-02-10T11:24:20;30.07;;;11.40;;
20122;SDS011;10222;50.848;4.336;2023-02-10T11:29:48;23.77;;;10.37;;
20122;SDS011;10222;50.848;4.336;2023-02-10T11:32:28;18.40;;;8.43;;
20122;SDS011;10222;50.848;4.336;2023-02-10T11:34:59;26.50;;;9.17;;
20122;SDS011;10222;50.848;4.336;2023-02-10T11:42:27;25.37;;;10.27;;
20122;SDS011;10222;50.848;4.336;2023-02-10T11:47:25;27.10;;;10.60;;
20122;SDS011;10222;50.848;4.336;2023-02-10T11:49:52;22.60;;;9.90;;
20122;SDS011;10222;50.848;4.336;2023-02-10T11:52:19;27.33;;;11.70;;
20122;SDS011;10222;50.848;4.336;2023-02-10T11:54:48;25.80;;;10.20;;
20122;SDS011;10222;50.848;4.336;2023-02-10T11:57:28;26.00;;;11.17;;
20122;SDS011;10222;50.848;4.336;2023-02-10T12:00:17;27.83;;;11.10;;
20122;SDS011;10222;50.848;4.336;2023-02-10T12:05:40;29.33;;;11.23;;
20122;SDS011;10222;50.848;4.336;2023-02-10T12:08:20;28.50;;;10.77;;
20122;SDS011;10222;50.848;4.336;2023-02-10T12:13:44;22.93;;;10.20;;
20122;SDS011;10222;50.848;4.336;2023-02-10T12:16:18;28.20;;;11.20;;
20122;SDS011;10222;50.848;4.336;2023-02-10T12:18:58;24.33;;;10.43;;
20122;SDS011;10222;50.848;4.336;2023-02-10T12:35:17;25.00;;;12.33;;
20122;SDS011;10222;50.848;4.336;2023-02-10T12:53:41;27.37;;;11.67;;
20122;SDS011;10222;50.848;4.336;2023-02-10T12:56:15;25.20;;;10.73;;
20122;SDS011;10222;50.848;4.336;2023-02-10T12:58:47;26.47;;;11.37;;
20122;SDS011;10222;50.848;4.336;2023-02-10T13:03:57;30.37;;;12.33;;
20122;SDS011;10222;50.848;4.336;2023-02-10T13:06:36;29.97;;;11.77;;
20122;SDS011;10222;50.848;4.336;2023-02-10T13:09:11;30.33;;;13.00;;
20122;SDS011;10222;50.848;4.336;2023-02-10T13:14:30;29.60;;;13.20;;
20122;SDS011;10222;50.848;4.336;2023-02-10T13:17:02;31.30;;;12.17;;
20122;SDS011;10222;50.848;4.336;2023-02-10T13:22:18;30.70;;;11.90;;
20122;SDS011;10222;50.848;4.336;2023-02-10T13:25:07;30.70;;;12.47;;
20122;SDS011;10222;50.848;4.336;2023-02-10T13:35:31;32.73;;;12.77;;
20122;SDS011;10222;50.848;4.336;2023-02-10T13:37:59;32.73;;;12.90;;
20122;SDS011;10222;50.848;4.336;2023-02-10T13:41:16;29.87;;;12.60;;
20122;SDS011;10222;50.848;4.336;2023-02-10T13:46:21;28.07;;;10.77;;
20122;SDS011;10222;50.848;4.336;2023-02-10T13:48:52;28.53;;;10.70;;
20122;SDS011;10222;50.848;4.336;2023-02-10T13:51:30;27.00;;;11.40;;
20122;SDS011;10222;50.848;4.336;2023-02-10T13:53:58;24.57;;;11.30;;
20122;SDS011;10222;50.848;4.336;2023-02-10T13:56:27;32.53;;;12.57;;
20122;SDS011;10222;50.848;4.336;2023-02-10T13:58:58;29.87;;;12.40;;
20122;SDS011;10222;50.848;4.336;2023-02-10T14:01:38;35.60;;;13.60;;
20122;SDS011;10222;50.848;4.336;2023-02-10T14:09:32;32.77;;;12.23;;
20122;SDS011;10222;50.848;4.336;2023-02-10T14:12:18;26.50;;;12.47;;
20122;SDS011;10222;50.848;4.336;2023-02-10T14:14:51;32.80;;;11.67;;
20122;SDS011;10222;50.848;4.336;2023-02-10T14:17:24;27.60;;;11.50;;
20122;SDS011;10222;50.848;4.336;2023-02-10T14:19:56;30.50;;;12.07;;
20122;SDS011;10222;50.848;4.336;2023-02-10T14:24:53;36.03;;;13.37;;
20122;SDS011;10222;50.848;4.336;2023-02-10T14:27:24;27.23;;;12.73;;
20122;SDS011;10222;50.848;4.336;2023-02-10T14:29:53;29.27;;;12.43;;
20122;SDS011;10222;50.848;4.336;2023-02-10T14:32:29;28.90;;;12.00;;
20122;SDS011;10222;50.848;4.336;2023-02-10T14:34:58;26.97;;;12.03;;
20122;SDS011;10222;50.848;4.336;2023-02-10T14:37:28;32.50;;;14.03;;
20122;SDS011;10222;50.848;4.336;2023-02-10T14:39:56;31.70;;;12.23;;
20122;SDS011;10222;50.848;4.336;2023-02-10T14:42:23;26.83;;;10.90;;
20122;SDS011;10222;50.848;4.336;2023-02-10T14:44:52;34.13;;;13.10;;
20122;SDS011;10222;50.848;4.336;2023-02-10T14:47:21;29.27;;;12.83;;
20122;SDS011;10222;50.848;4.336;2023-02-10T14:49:56;32.37;;;13.67;;
20122;SDS011;10222;50.848;4.336;2023-02-10T14:54:50;31.30;;;11.63;;
20122;SDS011;10222;50.848;4.336;2023-02-10T14:57:19;29.97;;;11.83;;
20122;SDS011;10222;50.848;4.336;2023-02-10T15:00:02;30.70;;;13.33;;
20122;SDS011;10222;50.848;4.336;2023-02-10T15:02:31;35.47;;;13.53;;
20122;SDS011;10222;50.848;4.336;2023-02-10T15:04:59;33.37;;;13.17;;
20122;SDS011;10222;50.848;4.336;2023-02-10T15:07:28;31.17;;;11.27;;
20122;SDS011;10222;50.848;4.336;2023-02-10T15:10:00;30.40;;;13.20;;
20122;SDS011;10222;50.848;4.336;2023-02-10T15:12:27;33.37;;;11.60;;
20122;SDS011;10222;50.848;4.336;2023-02-10T15:17:25;34.73;;;12.80;;
20122;SDS011;10222;50.848;4.336;2023-02-10T15:19:55;33.27;;;12.70;;
20122;SDS011;10222;50.848;4.336;2023-02-10T15:27:46;33.83;;;12.80;;
20122;SDS011;10222;50.848;4.336;2023-02-10T15:30:19;34.40;;;14.30;;
20122;SDS011;10222;50.848;4.336;2023-02-10T15:35:21;35.33;;;12.53;;
20122;SDS011;10222;50.848;4.336;2023-02-10T15:37:48;31.73;;;12.43;;
20122;SDS011;10222;50.848;4.336;2023-02-10T15:40:18;40.83;;;15.60;;
20122;SDS011;10222;50.848;4.336;2023-02-10T15:42:54;38.57;;;13.30;;
20122;SDS011;10222;50.848;4.336;2023-02-10T15:45:23;33.27;;;13.13;;
20122;SDS011;10222;50.848;4.336;2023-02-10T15:50:21;32.37;;;12.87;;
20122;SDS011;10222;50.848;4.336;2023-02-10T15:55:36;29.83;;;12.53;;
20122;SDS011;10222;50.848;4.336;2023-02-10T15:58:08;41.00;;;13.37;;
20122;SDS011;10222;50.848;4.336;2023-02-10T16:00:41;30.37;;;13.03;;
20122;SDS011;10222;50.848;4.336;2023-02-10T16:03:12;44.90;;;13.70;;
20122;SDS011;10222;50.848;4.336;2023-02-10T16:05:40;34.13;;;13.40;;
20122;SDS011;10222;50.848;4.336;2023-02-10T16:10:40;29.33;;;13.33;;
20122;SDS011;10222;50.848;4.336;2023-02-10T16:13:06;30.37;;;13.03;;
20122;SDS011;10222;50.848;4.336;2023-02-10T16:15:33;35.00;;;13.23;;
20122;SDS011;10222;50.848;4.336;2023-02-10T16:18:00;37.17;;;14.37;;
20122;SDS011;10222;50.848;4.336;2023-02-10T16:20:31;34.97;;;14.40;;
20122;SDS011;10222;50.848;4.336;2023-02-10T16:23:01;38.60;;;13.77;;
20122;SDS011;10222;50.848;4.336;2023-02-10T16:25:29;31.33;;;14.00;;
20122;SDS011;10222;50.848;4.336;2023-02-10T16:27:58;38.93;;;15.50;;
20122;SDS011;10222;50.848;4.336;2023-02-10T16:30:27;28.73;;;13.37;;
20122;SDS011;10222;50.848;4.336;2023-02-10T16:35:25;38.63;;;14.83;;
20122;SDS011;10222;50.848;4.336;2023-02-10T16:37:54;33.40;;;14.50;;
20122;SDS011;10222;50.848;4.336;2023-02-10T16:40:31;33.37;;;14.00;;
20122;SDS011;10222;50.848;4.336;2023-02-10T16:42:59;41.30;;;16.03;;
20122;SDS011;10222;50.848;4.336;2023-02-10T16:45:27;31.50;;;14.07;;
20122;SDS011;10222;50.848;4.336;2023-02-10T16:47:55;37.43;;;14.67;;
20122;SDS011;10222;50.848;4.336;2023-02-10T16:50:23;36.73;;;14.73;;
20122;SDS011;10222;50.848;4.336;2023-02-10T16:52:51;28.90;;;13.70;;
20122;SDS011;10222;50.848;4.336;2023-02-10T16:55:17;40.90;;;16.50;;
20122;SDS011;10222;50.848;4.336;2023-02-10T16:57:48;36.63;;;13.70;;
20122;SDS011;10222;50.848;4.336;2023-02-10T17:00:14;37.47;;;14.50;;
20122;SDS011;10222;50.848;4.336;2023-02-10T17:02:42;37.30;;;14.80;;
20122;SDS011;10222;50.848;4.336;2023-02-10T17:05:10;38.70;;;14.70;;
20122;SDS011;10222;50.848;4.336;2023-02-10T17:07:38;32.40;;;14.50;;
20122;SDS011;10222;50.848;4.336;2023-02-10T17:10:15;31.80;;;14.93;;
20122;SDS011;10222;50.848;4.336;2023-02-10T17:12:41;38.00;;;14.90;;
20122;SDS011;10222;50.848;4.336;2023-02-10T17:15:07;29.20;;;14.63;;
20122;SDS011;10222;50.848;4.336;2023-02-10T17:17:34;34.87;;;16.03;;
20122;SDS011;10222;50.848;4.336;2023-02-10T17:20:00;30.23;;;13.90;;
20122;SDS011;10222;50.848;4.336;2023-02-10T17:22:32;30.90;;;13.53;;
20122;SDS011;10222;50.848;4.336;2023-02-10T17:24:58;37.30;;;15.63;;
20122;SDS011;10222;50.848;4.336;2023-02-10T17:27:27;26.67;;;12.93;;
20122;SDS011;10222;50.848;4.336;2023-02-10T17:29:53;35.93;;;14.37;;
20122;SDS011;10222;50.848;4.336;2023-02-10T17:32:20;32.27;;;13.50;;
20122;SDS011;10222;50.848;4.336;2023-02-10T17:34:47;28.17;;;12.37;;
20122;SDS011;10222;50.848;4.336;2023-02-10T17:37:15;35.47;;;14.77;;
20122;SDS011;10222;50.848;4.336;2023-02-10T17:39:44;28.97;;;13.23;;
20122;SDS011;10222;50.848;4.336;2023-02-10T17:42:14;37.07;;;13.57;;
20122;SDS011;10222;50.848;4.336;2023-02-10T17:44:46;28.27;;;12.60;;
20122;SDS011;10222;50.848;4.336;2023-02-10T17:47:13;34.40;;;14.10;;
20122;SDS011;10222;50.848;4.336;2023-02-10T17:49:39;34.33;;;14.07;;
20122;SDS011;10222;50.848;4.336;2023-02-10T17:52:07;32.20;;;12.70;;
20122;SDS011;10222;50.848;4.336;2023-02-10T17:54:35;28.67;;;12.50;;
20122;SDS011;10222;50.848;4.336;2023-02-10T17:57:02;29.90;;;11.97;;
20122;SDS011;10222;50.848;4.336;2023-02-10T17:59:31;27.00;;;11.27;;
20122;SDS011;10222;50.848;4.336;2023-02-10T18:01:58;28.57;;;13.57;;
20122;SDS011;10222;50.848;4.336;2023-02-10T18:04:27;27.60;;;11.70;;
20122;SDS011;10222;50.848;4.336;2023-02-10T18:06:53;27.23;;;11.63;;
20122;SDS011;10222;50.848;4.336;2023-02-10T18:09:21;41.77;;;13.63;;
20122;SDS011;10222;50.848;4.336;2023-02-10T18:11:50;27.53;;;12.80;;
20122;SDS011;10222;50.848;4.336;2023-02-10T18:14:19;25.17;;;10.37;;
20122;SDS011;10222;50.848;4.336;2023-02-10T18:16:46;24.07;;;11.90;;
20122;SDS011;10222;50.848;4.336;2023-02-10T18:19:13;24.30;;;11.57;;
20122;SDS011;10222;50.848;4.336;2023-02-10T18:21:43;26.43;;;12.07;;
20122;SDS011;10222;50.848;4.336;2023-02-10T18:26:41;34.60;;;13.03;;
20122;SDS011;10222;50.848;4.336;2023-02-10T18:29:10;31.23;;;12.47;;
20122;SDS011;10222;50.848;4.336;2023-02-10T18:31:37;30.43;;;12.93;;
20122;SDS011;10222;50.848;4.336;2023-02-10T18:34:15;27.00;;;12.30;;